首页
METAR-TAF:

METAR-TAF

机场 :

杰克逊维尔国际机场

杰克逊维尔, 佛罗里达州, 美国

纬度: 30-29-40N, 经度: 081-41-36W, 海拔: 9米

当前天气观测

该预报发布于36分钟前的05:56 UTC
静风
温度 4°C
湿度 93%
气压 1025 hPa
能見度: 16.1公里
天空无云

METAR: KJAX 120556Z 00000KT 10SM CLR 04/03 A3028 RMK AO2 SLP255 T00390028 10061 20039 58005

时间: 01:32 (06:32 UTC)

预报

该预报发布于1小时和12分钟前的05:20 UTC
预报有效从12日的 06点(UTC)到 13日的 06点(UTC)
风速2节,风向多变
能見度: 10公里
天空无云
从 12日的 1800点(UTC)
风速7节,风向西南
能見度: 10公里
少量云层高于25000英尺
从 13日的 0000点(UTC)
风速节,风向
能見度: 10公里
多云层高于25000英尺

TAF: KJAX 120520Z 1206/1306 VRB02KT P6SM SKC FM121800 22007KT P6SM FEW250 FM130000 00000KT P6SM BKN250

超过4000个机场的气象观测和天气预报(METAR&TAF报告)。

可查询的气象台以黄色和红色小点在地图上表示。

将鼠标移到小点上方,可查看气象台名称。

然后点击查看天气观测和预报。

如需切换地图:点击带黑十字的绿色按钮放大地图;点击带横线的绿色按钮缩小地图;或者点击绿色箭头查看邻近地区的地图。


METAR-TAF: